sensor_id;sensor_type;location;lat;lon;timestamp;pressure;altitude;pressure_sealevel;temperature;humidity
77165;BME280;66140;50.280;18.660;2023-02-15T05:00:56;100642.34;;;1.42;88.25
77165;BME280;66140;50.280;18.660;2023-02-15T05:03:22;100640.63;;;1.41;88.38
77165;BME280;66140;50.280;18.660;2023-02-15T05:05:48;100644.94;;;1.42;87.83
77165;BME280;66140;50.280;18.660;2023-02-15T05:08:13;100642.34;;;1.42;88.69
77165;BME280;66140;50.280;18.660;2023-02-15T05:10:39;100645.81;;;1.42;88.11
77165;BME280;66140;50.280;18.660;2023-02-15T05:13:04;100634.50;;;1.39;87.80
77165;BME280;66140;50.280;18.660;2023-02-15T05:15:30;100635.38;;;1.41;88.26
77165;BME280;66140;50.280;18.660;2023-02-15T05:17:56;100634.50;;;1.42;88.48
77165;BME280;66140;50.280;18.660;2023-02-15T05:20:21;100623.16;;;1.41;88.72
77165;BME280;66140;50.280;18.660;2023-02-15T05:22:48;100625.81;;;1.40;88.15
77165;BME280;66140;50.280;18.660;2023-02-15T05:25:15;100633.63;;;1.41;88.02
77165;BME280;66140;50.280;18.660;2023-02-15T05:27:59;100623.19;;;1.37;88.49
77165;BME280;66140;50.280;18.660;2023-02-15T05:30:43;100631.03;;;1.40;87.59
77165;BME280;66140;50.280;18.660;2023-02-15T05:33:08;100620.56;;;1.40;87.90
77165;BME280;66140;50.280;18.660;2023-02-15T05:35:34;100630.16;;;1.38;88.78
77165;BME280;66140;50.280;18.660;2023-02-15T05:37:59;100628.41;;;1.38;88.50
77165;BME280;66140;50.280;18.660;2023-02-15T05:40:25;100617.06;;;1.38;88.20
77165;BME280;66140;50.280;18.660;2023-02-15T05:42:51;100631.03;;;1.40;88.45
77165;BME280;66140;50.280;18.660;2023-02-15T05:45:16;100613.59;;;1.37;87.71
77165;BME280;66140;50.280;18.660;2023-02-15T05:47:42;100622.31;;;1.41;88.01
77165;BME280;66140;50.280;18.660;2023-02-15T05:50:08;100624.06;;;1.39;88.77
77165;BME280;66140;50.280;18.660;2023-02-15T05:52:35;100629.28;;;1.40;88.42
77165;BME280;66140;50.280;18.660;2023-02-15T05:55:00;100613.63;;;1.33;88.64
77165;BME280;66140;50.280;18.660;2023-02-15T05:57:27;100631.03;;;1.38;88.62
77165;BME280;66140;50.280;18.660;2023-02-15T05:59:53;100624.03;;;1.36;88.76
77165;BME280;66140;50.280;18.660;2023-02-15T06:02:18;100622.28;;;1.44;88.07
77165;BME280;66140;50.280;18.660;2023-02-15T06:04:44;100617.06;;;1.35;88.75
77165;BME280;66140;50.280;18.660;2023-02-15T06:07:09;100631.00;;;1.41;88.20
77165;BME280;66140;50.280;18.660;2023-02-15T06:09:35;100629.28;;;1.40;88.40
77165;BME280;66140;50.280;18.660;2023-02-15T06:12:00;100632.78;;;1.41;88.71
77165;BME280;66140;50.280;18.660;2023-02-15T06:14:26;100629.25;;;1.42;88.17
77165;BME280;66140;50.280;18.660;2023-02-15T06:16:51;100641.50;;;1.40;88.93
77165;BME280;66140;50.280;18.660;2023-02-15T06:19:16;100636.25;;;1.40;88.56
77165;BME280;66140;50.280;18.660;2023-02-15T06:21:42;100633.63;;;1.41;89.01
77165;BME280;66140;50.280;18.660;2023-02-15T06:24:10;100636.25;;;1.43;88.61
77165;BME280;66140;50.280;18.660;2023-02-15T06:26:36;100643.22;;;1.44;88.90
77165;BME280;66140;50.280;18.660;2023-02-15T06:29:02;100634.50;;;1.45;88.94
77165;BME280;66140;50.280;18.660;2023-02-15T06:31:27;100647.56;;;1.51;89.46
77165;BME280;66140;50.280;18.660;2023-02-15T06:33:53;100645.81;;;1.51;88.92
77165;BME280;66140;50.280;18.660;2023-02-15T06:36:26;100638.00;;;1.47;88.12
77165;BME280;66140;50.280;18.660;2023-02-15T06:38:51;100656.28;;;1.53;88.63
77165;BME280;66140;50.280;18.660;2023-02-15T06:41:17;100648.41;;;1.54;88.37
77165;BME280;66140;50.280;18.660;2023-02-15T06:43:42;100642.31;;;1.51;88.43
77165;BME280;66140;50.280;18.660;2023-02-15T06:46:07;100645.78;;;1.56;88.50
77165;BME280;66140;50.280;18.660;2023-02-15T06:48:33;100651.03;;;1.56;88.48
77165;BME280;66140;50.280;18.660;2023-02-15T06:50:58;100656.22;;;1.60;88.58
77165;BME280;66140;50.280;18.660;2023-02-15T06:53:24;100648.38;;;1.62;87.79
77165;BME280;66140;50.280;18.660;2023-02-15T06:55:49;100639.69;;;1.60;88.06
77165;BME280;66140;50.280;18.660;2023-02-15T06:58:15;100633.59;;;1.59;88.17
77165;BME280;66140;50.280;18.660;2023-02-15T07:00:40;100640.56;;;1.65;88.28
77165;BME280;66140;50.280;18.660;2023-02-15T07:03:05;100641.41;;;1.64;88.01
77165;BME280;66140;50.280;18.660;2023-02-15T07:05:33;100630.06;;;1.67;88.06
77165;BME280;66140;50.280;18.660;2023-02-15T07:07:59;100637.91;;;1.68;87.75
77165;BME280;66140;50.280;18.660;2023-02-15T07:10:26;100633.53;;;1.70;88.49
77165;BME280;66140;50.280;18.660;2023-02-15T07:12:53;100631.78;;;1.75;88.02
77165;BME280;66140;50.280;18.660;2023-02-15T07:15:19;100629.16;;;1.75;87.81
77165;BME280;66140;50.280;18.660;2023-02-15T07:17:46;100622.16;;;1.80;87.27
77165;BME280;66140;50.280;18.660;2023-02-15T07:20:19;100621.28;;;1.81;87.26
77165;BME280;66140;50.280;18.660;2023-02-15T07:22:45;100620.41;;;1.82;87.55
77165;BME280;66140;50.280;18.660;2023-02-15T07:25:11;100630.88;;;1.85;87.52
77165;BME280;66140;50.280;18.660;2023-02-15T07:27:37;100623.03;;;1.85;87.99
77165;BME280;66140;50.280;18.660;2023-02-15T07:30:05;100617.81;;;1.85;87.82
77165;BME280;66140;50.280;18.660;2023-02-15T07:32:32;100623.84;;;1.96;88.02
77165;BME280;66140;50.280;18.660;2023-02-15T07:34:58;100608.16;;;1.93;87.56
77165;BME280;66140;50.280;18.660;2023-02-15T07:37:24;100616.00;;;1.96;86.69
77165;BME280;66140;50.280;18.660;2023-02-15T07:39:57;100613.34;;;1.99;87.07
77165;BME280;66140;50.280;18.660;2023-02-15T07:42:22;100619.41;;;2.06;87.08
77165;BME280;66140;50.280;18.660;2023-02-15T07:44:48;100617.69;;;2.08;87.55
77165;BME280;66140;50.280;18.660;2023-02-15T07:47:17;100608.91;;;2.12;87.02
77165;BME280;66140;50.280;18.660;2023-02-15T07:49:43;100623.72;;;2.24;86.60
77165;BME280;66140;50.280;18.660;2023-02-15T07:52:08;100611.50;;;2.23;85.91
77165;BME280;66140;50.280;18.660;2023-02-15T07:54:34;100602.72;;;2.27;86.22
77165;BME280;66140;50.280;18.660;2023-02-15T07:57:00;100599.19;;;2.31;86.31
77165;BME280;66140;50.280;18.660;2023-02-15T07:59:25;100604.34;;;2.46;86.39
77165;BME280;66140;50.280;18.660;2023-02-15T08:01:55;100596.44;;;2.52;86.32
77165;BME280;66140;50.280;18.660;2023-02-15T08:04:21;100604.22;;;2.64;86.44
77165;BME280;66140;50.280;18.660;2023-02-15T08:06:46;100595.47;;;2.68;85.86
77165;BME280;66140;50.280;18.660;2023-02-15T08:09:12;100593.66;;;2.73;84.92
77165;BME280;66140;50.280;18.660;2023-02-15T08:11:40;100594.38;;;2.91;84.79
77165;BME280;66140;50.280;18.660;2023-02-15T08:14:20;100589.88;;;3.05;84.32
77165;BME280;66140;50.280;18.660;2023-02-15T08:16:47;100592.44;;;3.09;83.70
77165;BME280;66140;50.280;18.660;2023-02-15T08:19:22;100591.63;;;3.06;83.42
77165;BME280;66140;50.280;18.660;2023-02-15T08:21:50;100592.56;;;2.97;83.27
77165;BME280;66140;50.280;18.660;2023-02-15T08:24:18;100585.66;;;2.90;83.82
77165;BME280;66140;50.280;18.660;2023-02-15T08:26:44;100586.56;;;2.88;84.19
77165;BME280;66140;50.280;18.660;2023-02-15T08:29:18;100581.28;;;2.91;83.77
77165;BME280;66140;50.280;18.660;2023-02-15T08:31:44;100578.59;;;3.00;84.37
77165;BME280;66140;50.280;18.660;2023-02-15T08:34:12;100575.78;;;3.15;83.91
77165;BME280;66140;50.280;18.660;2023-02-15T08:36:38;100579.88;;;3.40;82.72
77165;BME280;66140;50.280;18.660;2023-02-15T08:39:05;100585.84;;;3.54;81.55
77165;BME280;66140;50.280;18.660;2023-02-15T08:41:34;100572.72;;;3.57;81.07
77165;BME280;66140;50.280;18.660;2023-02-15T08:44:03;100575.22;;;3.65;81.86
77165;BME280;66140;50.280;18.660;2023-02-15T08:46:30;100578.75;;;3.62;81.18
77165;BME280;66140;50.280;18.660;2023-02-15T08:48:57;100577.91;;;3.62;81.66
77165;BME280;66140;50.280;18.660;2023-02-15T08:51:28;100567.41;;;3.60;81.68
77165;BME280;66140;50.280;18.660;2023-02-15T08:54:00;100568.22;;;3.66;82.54
77165;BME280;66140;50.280;18.660;2023-02-15T08:56:29;100558.59;;;3.66;81.87
77165;BME280;66140;50.280;18.660;2023-02-15T08:58:57;100555.06;;;3.70;81.81
77165;BME280;66140;50.280;18.660;2023-02-15T09:01:25;100551.41;;;3.80;81.38
77165;BME280;66140;50.280;18.660;2023-02-15T09:03:52;100547.00;;;3.84;81.21
77165;BME280;66140;50.280;18.660;2023-02-15T09:06:21;100543.53;;;3.82;81.10
77165;BME280;66140;50.280;18.660;2023-02-15T09:08:47;100536.50;;;3.84;80.33
77165;BME280;66140;50.280;18.660;2023-02-15T09:11:16;100544.25;;;3.91;80.56
77165;BME280;66140;50.280;18.660;2023-02-15T09:13:55;100539.94;;;3.89;80.62
77165;BME280;66140;50.280;18.660;2023-02-15T09:16:21;100546.84;;;3.96;80.21
77165;BME280;66140;50.280;18.660;2023-02-15T09:18:48;100552.00;;;4.02;80.47
77165;BME280;66140;50.280;18.660;2023-02-15T09:21:16;100537.91;;;4.06;80.08
77165;BME280;66140;50.280;18.660;2023-02-15T09:23:43;100539.56;;;4.13;79.63
77165;BME280;66140;50.280;18.660;2023-02-15T09:26:11;100540.34;;;4.21;79.07
77165;BME280;66140;50.280;18.660;2023-02-15T09:28:37;100535.88;;;4.26;78.91
77165;BME280;66140;50.280;18.660;2023-02-15T09:31:17;100528.84;;;4.28;79.32
77165;BME280;66140;50.280;18.660;2023-02-15T09:33:43;100519.25;;;4.24;78.12
77165;BME280;66140;50.280;18.660;2023-02-15T09:36:20;100515.50;;;4.40;78.07
77165;BME280;66140;50.280;18.660;2023-02-15T09:38:58;100511.81;;;4.51;78.22
77165;BME280;66140;50.280;18.660;2023-02-15T09:44:25;100512.47;;;4.63;78.28
77165;BME280;66140;50.280;18.660;2023-02-15T09:55:12;100513.75;;;4.90;75.74
77165;BME280;66140;50.280;18.660;2023-02-15T10:00:40;100493.28;;;5.06;72.66
77165;BME280;66140;50.280;18.660;2023-02-15T10:03:23;100490.63;;;5.07;73.53
77165;BME280;66140;50.280;18.660;2023-02-15T10:06:18;100487.81;;;5.18;73.73
77165;BME280;66140;50.280;18.660;2023-02-15T10:17:25;100481.34;;;5.33;72.12
77165;BME280;66140;50.280;18.660;2023-02-15T10:27:51;100480.03;;;5.55;72.36
77165;BME280;66140;50.280;18.660;2023-02-15T10:31:07;100479.94;;;5.58;72.81
77165;BME280;66140;50.280;18.660;2023-02-15T10:38:25;100468.22;;;5.73;71.14
77165;BME280;66140;50.280;18.660;2023-02-15T10:43:59;100461.63;;;5.95;71.07
77165;BME280;66140;50.280;18.660;2023-02-15T10:46:50;100466.72;;;6.01;70.96
77165;BME280;66140;50.280;18.660;2023-02-15T10:49:23;100464.13;;;5.99;69.89
77165;BME280;66140;50.280;18.660;2023-02-15T11:00:24;100443.53;;;6.15;68.00
77165;BME280;66140;50.280;18.660;2023-02-15T11:08:15;100440.34;;;6.38;69.37
77165;BME280;66140;50.280;18.660;2023-02-15T11:10:48;100422.66;;;6.41;68.52
77165;BME280;66140;50.280;18.660;2023-02-15T11:13:18;100428.63;;;6.48;67.06
77165;BME280;66140;50.280;18.660;2023-02-15T11:18:19;100420.41;;;6.60;68.00
77165;BME280;66140;50.280;18.660;2023-02-15T11:20:59;100418.44;;;6.68;65.80
77165;BME280;66140;50.280;18.660;2023-02-15T11:23:27;100420.25;;;6.66;67.01
77165;BME280;66140;50.280;18.660;2023-02-15T11:26:02;100422.69;;;6.74;66.30
77165;BME280;66140;50.280;18.660;2023-02-15T11:28:39;100414.72;;;6.75;66.05
77165;BME280;66140;50.280;18.660;2023-02-15T11:31:24;100415.47;;;6.80;67.15
77165;BME280;66140;50.280;18.660;2023-02-15T11:33:53;100414.66;;;6.78;66.42
77165;BME280;66140;50.280;18.660;2023-02-15T11:36:25;100404.22;;;6.74;67.28
77165;BME280;66140;50.280;18.660;2023-02-15T11:38:59;100412.81;;;6.80;66.82
77165;BME280;66140;50.280;18.660;2023-02-15T11:41:29;100398.53;;;6.89;66.44
77165;BME280;66140;50.280;18.660;2023-02-15T11:44:05;100405.56;;;6.89;67.28
77165;BME280;66140;50.280;18.660;2023-02-15T11:46:32;100398.41;;;6.92;66.28
77165;BME280;66140;50.280;18.660;2023-02-15T11:48:57;100402.75;;;6.95;65.16
77165;BME280;66140;50.280;18.660;2023-02-15T11:51:23;100392.28;;;6.92;65.34
77165;BME280;66140;50.280;18.660;2023-02-15T11:53:50;100390.50;;;6.92;65.08
77165;BME280;66140;50.280;18.660;2023-02-15T11:56:21;100391.31;;;6.96;65.42
77165;BME280;66140;50.280;18.660;2023-02-15T11:58:55;100378.91;;;6.98;65.21
77165;BME280;66140;50.280;18.660;2023-02-15T12:01:43;100383.06;;;7.06;63.75
77165;BME280;66140;50.280;18.660;2023-02-15T12:04:55;100370.66;;;7.10;61.91
77165;BME280;66140;50.280;18.660;2023-02-15T12:07:37;100374.94;;;7.14;63.40
77165;BME280;66140;50.280;18.660;2023-02-15T12:10:26;100375.88;;;7.11;62.52
77165;BME280;66140;50.280;18.660;2023-02-15T12:13:12;100373.13;;;7.16;63.74
77165;BME280;66140;50.280;18.660;2023-02-15T12:15:42;100356.59;;;7.09;64.14
77165;BME280;66140;50.280;18.660;2023-02-15T12:18:33;100357.53;;;7.07;64.75
77165;BME280;66140;50.280;18.660;2023-02-15T12:21:03;100361.88;;;7.09;63.41
77165;BME280;66140;50.280;18.660;2023-02-15T12:23:31;100353.81;;;7.14;63.97
77165;BME280;66140;50.280;18.660;2023-02-15T12:25:58;100358.41;;;7.07;63.77
77165;BME280;66140;50.280;18.660;2023-02-15T12:30:53;100341.72;;;7.07;64.70
77165;BME280;66140;50.280;18.660;2023-02-15T12:33:35;100341.63;;;7.10;64.14
77165;BME280;66140;50.280;18.660;2023-02-15T12:36:24;100338.16;;;7.08;64.30
77165;BME280;66140;50.280;18.660;2023-02-15T12:39:22;100336.25;;;7.13;64.50
77165;BME280;66140;50.280;18.660;2023-02-15T12:44:30;100308.03;;;7.15;63.66
77165;BME280;66140;50.280;18.660;2023-02-15T12:47:00;100303.66;;;7.14;64.00
77165;BME280;66140;50.280;18.660;2023-02-15T12:49:28;100308.84;;;7.17;63.99
77165;BME280;66140;50.280;18.660;2023-02-15T12:51:59;100303.44;;;7.21;63.57
77165;BME280;66140;50.280;18.660;2023-02-15T12:54:31;100309.66;;;7.19;63.24
77165;BME280;66140;50.280;18.660;2023-02-15T12:56:58;100299.91;;;7.22;62.73
77165;BME280;66140;50.280;18.660;2023-02-15T12:59:24;100300.81;;;7.21;63.52
77165;BME280;66140;50.280;18.660;2023-02-15T13:01:51;100302.56;;;7.21;62.67
77165;BME280;66140;50.280;18.660;2023-02-15T13:04:23;100310.47;;;7.22;63.21
77165;BME280;66140;50.280;18.660;2023-02-15T13:06:52;100302.66;;;7.18;62.70
77165;BME280;66140;50.280;18.660;2023-02-15T13:09:33;100292.91;;;7.20;63.47
77165;BME280;66140;50.280;18.660;2023-02-15T13:12:30;100288.59;;;7.17;64.88
77165;BME280;66140;50.280;18.660;2023-02-15T13:14:57;100299.09;;;7.19;64.08
77165;BME280;66140;50.280;18.660;2023-02-15T13:17:26;100290.38;;;7.17;63.76
77165;BME280;66140;50.280;18.660;2023-02-15T13:20:05;100278.31;;;7.10;63.32
77165;BME280;66140;50.280;18.660;2023-02-15T13:22:43;100281.66;;;7.15;63.46
77165;BME280;66140;50.280;18.660;2023-02-15T13:25:21;100286.94;;;7.15;63.91
77165;BME280;66140;50.280;18.660;2023-02-15T13:27:51;100286.16;;;7.11;64.66
77165;BME280;66140;50.280;18.660;2023-02-15T13:30:29;100285.19;;;7.14;63.21
77165;BME280;66140;50.280;18.660;2023-02-15T13:36:12;100278.00;;;7.19;63.36
77165;BME280;66140;50.280;18.660;2023-02-15T13:39:22;100272.84;;;7.16;64.26
77165;BME280;66140;50.280;18.660;2023-02-15T13:42:05;100278.31;;;7.10;63.66
77165;BME280;66140;50.280;18.660;2023-02-15T13:56:27;100261.78;;;7.03;64.80
77165;BME280;66140;50.280;18.660;2023-02-15T13:59:24;100263.56;;;7.03;65.40
77165;BME280;66140;50.280;18.660;2023-02-15T14:04:55;100258.47;;;6.97;65.48
77165;BME280;66140;50.280;18.660;2023-02-15T14:16:24;100262.06;;;6.94;66.51
77165;BME280;66140;50.280;18.660;2023-02-15T14:21:41;100250.81;;;6.88;66.16
77165;BME280;66140;50.280;18.660;2023-02-15T14:27:24;100263.13;;;6.89;66.60
77165;BME280;66140;50.280;18.660;2023-02-15T14:29:53;100256.13;;;6.86;66.55
77165;BME280;66140;50.280;18.660;2023-02-15T14:32:33;100250.25;;;6.78;66.17
77165;BME280;66140;50.280;18.660;2023-02-15T14:35:03;100257.22;;;6.79;66.95
77165;BME280;66140;50.280;18.660;2023-02-15T14:37:52;100258.28;;;6.73;67.48
77165;BME280;66140;50.280;18.660;2023-02-15T14:40:51;100259.19;;;6.72;66.44
77165;BME280;66140;50.280;18.660;2023-02-15T14:49:05;100250.97;;;6.54;67.82
77165;BME280;66140;50.280;18.660;2023-02-15T14:56:41;100251.44;;;6.37;68.77
77165;BME280;66140;50.280;18.660;2023-02-15T14:59:22;100247.44;;;6.24;68.36
77165;BME280;66140;50.280;18.660;2023-02-15T15:02:07;100256.34;;;6.20;69.05
77165;BME280;66140;50.280;18.660;2023-02-15T15:04:38;100251.06;;;6.20;69.09
77165;BME280;66140;50.280;18.660;2023-02-15T15:07:09;100246.84;;;6.14;70.09
77165;BME280;66140;50.280;18.660;2023-02-15T15:09:40;100249.66;;;6.07;70.02
77165;BME280;66140;50.280;18.660;2023-02-15T15:14:48;100242.28;;;5.88;69.50
77165;BME280;66140;50.280;18.660;2023-02-15T15:20:41;100246.88;;;5.79;71.03
77165;BME280;66140;50.280;18.660;2023-02-15T15:31:20;100243.25;;;5.49;71.09
77165;BME280;66140;50.280;18.660;2023-02-15T15:51:04;100227.56;;;4.70;75.44
77165;BME280;66140;50.280;18.660;2023-02-15T15:53:46;100225.19;;;4.60;76.23
77165;BME280;66140;50.280;18.660;2023-02-15T15:56:20;100219.41;;;4.42;76.82
77165;BME280;66140;50.280;18.660;2023-02-15T15:58:50;100217.00;;;4.32;77.53
77165;BME280;66140;50.280;18.660;2023-02-15T16:01:24;100206.78;;;4.18;78.10
77165;BME280;66140;50.280;18.660;2023-02-15T16:03:52;100223.66;;;4.07;78.15
77165;BME280;66140;50.280;18.660;2023-02-15T16:06:36;100220.41;;;3.92;78.41
77165;BME280;66140;50.280;18.660;2023-02-15T16:09:14;100217.91;;;3.86;78.91
77165;BME280;66140;50.280;18.660;2023-02-15T16:11:42;100218.91;;;3.81;78.81
77165;BME280;66140;50.280;18.660;2023-02-15T16:14:13;100217.38;;;3.69;78.93
77165;BME280;66140;50.280;18.660;2023-02-15T16:16:40;100213.13;;;3.60;79.64
77165;BME280;66140;50.280;18.660;2023-02-15T16:19:14;100223.75;;;3.54;79.94
77165;BME280;66140;50.280;18.660;2023-02-15T16:21:42;100223.97;;;3.42;80.64
77165;BME280;66140;50.280;18.660;2023-02-15T16:27:39;100220.69;;;3.28;80.86
77165;BME280;66140;50.280;18.660;2023-02-15T16:30:40;100220.03;;;3.15;81.16
77165;BME280;66140;50.280;18.660;2023-02-15T16:33:11;100227.97;;;3.11;81.29
77165;BME280;66140;50.280;18.660;2023-02-15T16:35:39;100228.06;;;3.05;81.56
77165;BME280;66140;50.280;18.660;2023-02-15T16:38:09;100222.09;;;2.95;81.77
77165;BME280;66140;50.280;18.660;2023-02-15T16:40:42;100234.41;;;2.90;81.68
77165;BME280;66140;50.280;18.660;2023-02-15T16:43:16;100215.34;;;2.79;82.42
77165;BME280;66140;50.280;18.660;2023-02-15T16:45:43;100226.78;;;2.73;82.70
77165;BME280;66140;50.280;18.660;2023-02-15T16:48:15;100221.63;;;2.67;83.10
77165;BME280;66140;50.280;18.660;2023-02-15T16:50:47;100231.34;;;2.61;83.36
77165;BME280;66140;50.280;18.660;2023-02-15T16:53:18;100228.81;;;2.53;84.15
77165;BME280;66140;50.280;18.660;2023-02-15T16:55:48;100221.91;;;2.49;84.00
77165;BME280;66140;50.280;18.660;2023-02-15T16:58:16;100219.34;;;2.43;84.03
77165;BME280;66140;50.280;18.660;2023-02-15T17:00:43;100225.50;;;2.39;84.27
77165;BME280;66140;50.280;18.660;2023-02-15T17:05:43;100225.59;;;2.33;84.77
77165;BME280;66140;50.280;18.660;2023-02-15T17:11:11;100226.50;;;2.29;85.14
77165;BME280;66140;50.280;18.660;2023-02-15T17:13:37;100222.25;;;2.19;85.65
77165;BME280;66140;50.280;18.660;2023-02-15T17:18:45;100229.28;;;2.17;85.75
77165;BME280;66140;50.280;18.660;2023-02-15T17:21:23;100220.66;;;2.09;86.00
77165;BME280;66140;50.280;18.660;2023-02-15T17:23:51;100217.22;;;2.04;86.04
77165;BME280;66140;50.280;18.660;2023-02-15T17:26:26;100213.75;;;1.98;86.13
77165;BME280;66140;50.280;18.660;2023-02-15T17:29:37;100227.75;;;1.97;86.38
77165;BME280;66140;50.280;18.660;2023-02-15T17:32:05;100225.22;;;1.91;86.37
77165;BME280;66140;50.280;18.660;2023-02-15T17:34:48;100222.69;;;1.79;86.50
77165;BME280;66140;50.280;18.660;2023-02-15T17:40:14;100234.97;;;1.74;87.44
77165;BME280;66140;50.280;18.660;2023-02-15T17:42:41;100223.69;;;1.68;87.70
77165;BME280;66140;50.280;18.660;2023-02-15T17:45:07;100220.28;;;1.63;87.87
77165;BME280;66140;50.280;18.660;2023-02-15T17:47:33;100219.47;;;1.56;88.24
77165;BME280;66140;50.280;18.660;2023-02-15T17:49:59;100216.91;;;1.51;88.61
77165;BME280;66140;50.280;18.660;2023-02-15T17:52:28;100223.00;;;1.49;88.89
77165;BME280;66140;50.280;18.660;2023-02-15T17:54:54;100220.44;;;1.43;89.30
77165;BME280;66140;50.280;18.660;2023-02-15T17:57:38;100217.88;;;1.40;89.39
77165;BME280;66140;50.280;18.660;2023-02-15T18:00:05;100220.50;;;1.37;89.79
77165;BME280;66140;50.280;18.660;2023-02-15T18:02:50;100215.31;;;1.34;89.62
77165;BME280;66140;50.280;18.660;2023-02-15T18:05:34;100210.97;;;1.30;89.61
77165;BME280;66140;50.280;18.660;2023-02-15T18:08:22;100200.56;;;1.27;90.09
77165;BME280;66140;50.280;18.660;2023-02-15T18:11:09;100209.28;;;1.26;89.77
77165;BME280;66140;50.280;18.660;2023-02-15T18:13:53;100206.69;;;1.24;89.99
77165;BME280;66140;50.280;18.660;2023-02-15T18:16:25;100211.94;;;1.19;89.90
77165;BME280;66140;50.280;18.660;2023-02-15T18:18:51;100218.06;;;1.15;90.67
77165;BME280;66140;50.280;18.660;2023-02-15T18:21:18;100215.53;;;1.08;90.68
77165;BME280;66140;50.280;18.660;2023-02-15T18:23:59;100216.47;;;1.02;90.76
77165;BME280;66140;50.280;18.660;2023-02-15T18:26:25;100199.97;;;0.93;90.95
77165;BME280;66140;50.280;18.660;2023-02-15T18:28:52;100208.66;;;0.95;91.72
77165;BME280;66140;50.280;18.660;2023-02-15T18:31:18;100211.28;;;0.90;91.97
77165;BME280;66140;50.280;18.660;2023-02-15T18:33:47;100202.66;;;0.82;91.96
77165;BME280;66140;50.280;18.660;2023-02-15T18:36:21;100201.78;;;0.83;91.85
77165;BME280;66140;50.280;18.660;2023-02-15T18:38:47;100200.94;;;0.78;92.01
77165;BME280;66140;50.280;18.660;2023-02-15T18:41:16;100199.22;;;0.71;92.04
77165;BME280;66140;50.280;18.660;2023-02-15T18:43:43;100201.06;;;0.63;92.21
77165;BME280;66140;50.280;18.660;2023-02-15T18:46:09;100199.34;;;0.53;92.34
77165;BME280;66140;50.280;18.660;2023-02-15T18:48:35;100203.75;;;0.48;92.76
77165;BME280;66140;50.280;18.660;2023-02-15T18:51:00;100208.13;;;0.41;92.66
77165;BME280;66140;50.280;18.660;2023-02-15T18:53:26;100196.88;;;0.30;93.13
77165;BME280;66140;50.280;18.660;2023-02-15T18:55:51;100194.28;;;0.27;93.25
77165;BME280;66140;50.280;18.660;2023-02-15T18:58:19;100200.34;;;0.26;93.17
77165;BME280;66140;50.280;18.660;2023-02-15T19:00:46;100203.00;;;0.24;93.43
77165;BME280;66140;50.280;18.660;2023-02-15T19:03:13;100194.31;;;0.19;94.16
77165;BME280;66140;50.280;18.660;2023-02-15T19:05:41;100202.16;;;0.18;93.87
77165;BME280;66140;50.280;18.660;2023-02-15T19:08:16;100193.47;;;0.08;94.09
77165;BME280;66140;50.280;18.660;2023-02-15T19:10:43;100203.91;;;0.07;94.26
77165;BME280;66140;50.280;18.660;2023-02-15T19:13:10;100208.31;;;0.05;94.47
77165;BME280;66140;50.280;18.660;2023-02-15T19:15:36;100203.97;;;-0.01;94.42
77165;BME280;66140;50.280;18.660;2023-02-15T19:18:01;100201.38;;;-0.12;94.69
77165;BME280;66140;50.280;18.660;2023-02-15T19:20:35;100197.94;;;-0.15;94.32
77165;BME280;66140;50.280;18.660;2023-02-15T19:23:01;100196.22;;;-0.22;94.69
77165;BME280;66140;50.280;18.660;2023-02-15T19:25:29;100184.03;;;-0.25;95.25
77165;BME280;66140;50.280;18.660;2023-02-15T19:27:56;100191.88;;;-0.26;94.64
77165;BME280;66140;50.280;18.660;2023-02-15T19:30:30;100184.06;;;-0.29;94.68
77165;BME280;66140;50.280;18.660;2023-02-15T19:32:57;100193.59;;;-0.25;94.82
77165;BME280;66140;50.280;18.660;2023-02-15T19:35:25;100182.34;;;-0.33;95.32
77165;BME280;66140;50.280;18.660;2023-02-15T19:37:53;100178.84;;;-0.29;95.61
77165;BME280;66140;50.280;18.660;2023-02-15T19:40:42;100179.69;;;-0.24;95.68
77165;BME280;66140;50.280;18.660;2023-02-15T19:43:18;100174.44;;;-0.18;95.97
77165;BME280;66140;50.280;18.660;2023-02-15T19:45:45;100159.69;;;-0.13;95.60
77165;BME280;66140;50.280;18.660;2023-02-15T19:48:13;100156.16;;;-0.03;95.76
77165;BME280;66140;50.280;18.660;2023-02-15T19:50:39;100149.16;;;0.05;95.96
77165;BME280;66140;50.280;18.660;2023-02-15T19:53:19;100146.53;;;0.10;95.78
77165;BME280;66140;50.280;18.660;2023-02-15T19:55:46;100140.44;;;0.12;96.03
77165;BME280;66140;50.280;18.660;2023-02-15T19:58:12;100148.19;;;0.23;95.82
77165;BME280;66140;50.280;18.660;2023-02-15T20:00:43;100144.69;;;0.30;95.39
77165;BME280;66140;50.280;18.660;2023-02-15T20:03:09;100137.66;;;0.39;95.37
77165;BME280;66140;50.280;18.660;2023-02-15T20:05:35;100141.13;;;0.43;94.64
77165;BME280;66140;50.280;18.660;2023-02-15T20:08:04;100126.28;;;0.47;94.29
77165;BME280;66140;50.280;18.660;2023-02-15T20:10:33;100138.38;;;0.58;94.00
77165;BME280;66140;50.280;18.660;2023-02-15T20:12:59;100138.44;;;0.54;93.71
77165;BME280;66140;50.280;18.660;2023-02-15T20:15:33;100133.19;;;0.57;93.53
77165;BME280;66140;50.280;18.660;2023-02-15T20:18:01;100129.69;;;0.58;94.02
77165;BME280;66140;50.280;18.660;2023-02-15T20:20:31;100119.28;;;0.55;93.63
77165;BME280;66140;50.280;18.660;2023-02-15T20:23:00;100125.31;;;0.61;93.54
77165;BME280;66140;50.280;18.660;2023-02-15T20:25:28;100127.94;;;0.63;93.47
77165;BME280;66140;50.280;18.660;2023-02-15T20:27:54;100110.53;;;0.59;93.07
